sensor_id;sensor_type;location;lat;lon;timestamp;temperature;humidity
25200;DHT22;33094;48.782;9.162;2023-06-19T00:00:54;24.90;80.30
25200;DHT22;33094;48.782;9.162;2023-06-19T00:03:19;24.90;80.20
25200;DHT22;33094;48.782;9.162;2023-06-19T00:05:45;25.00;80.30
25200;DHT22;33094;48.782;9.162;2023-06-19T00:08:10;25.00;80.30
25200;DHT22;33094;48.782;9.162;2023-06-19T00:10:36;24.90;80.50
25200;DHT22;33094;48.782;9.162;2023-06-19T00:13:01;24.90;80.50
25200;DHT22;33094;48.782;9.162;2023-06-19T00:15:27;24.90;80.50
25200;DHT22;33094;48.782;9.162;2023-06-19T00:17:55;24.90;80.60
25200;DHT22;33094;48.782;9.162;2023-06-19T00:20:20;24.80;80.70
25200;DHT22;33094;48.782;9.162;2023-06-19T00:22:46;24.90;80.70
25200;DHT22;33094;48.782;9.162;2023-06-19T00:25:17;24.90;80.60
25200;DHT22;33094;48.782;9.162;2023-06-19T00:27:43;24.90;81.10
25200;DHT22;33094;48.782;9.162;2023-06-19T00:30:08;24.90;80.30
25200;DHT22;33094;48.782;9.162;2023-06-19T00:32:34;25.00;80.40
25200;DHT22;33094;48.782;9.162;2023-06-19T00:35:12;25.00;80.40
25200;DHT22;33094;48.782;9.162;2023-06-19T00:37:38;24.90;80.50
25200;DHT22;33094;48.782;9.162;2023-06-19T00:40:03;24.90;80.50
25200;DHT22;33094;48.782;9.162;2023-06-19T00:42:29;25.00;80.20
25200;DHT22;33094;48.782;9.162;2023-06-19T00:44:55;25.00;80.20
25200;DHT22;33094;48.782;9.162;2023-06-19T00:47:20;25.10;80.30
25200;DHT22;33094;48.782;9.162;2023-06-19T00:49:46;25.10;80.30
25200;DHT22;33094;48.782;9.162;2023-06-19T00:52:12;25.00;80.20
25200;DHT22;33094;48.782;9.162;2023-06-19T00:54:37;25.00;80.30
25200;DHT22;33094;48.782;9.162;2023-06-19T00:57:03;25.00;80.20
25200;DHT22;33094;48.782;9.162;2023-06-19T00:59:28;24.90;80.40
25200;DHT22;33094;48.782;9.162;2023-06-19T01:01:54;24.90;80.30
25200;DHT22;33094;48.782;9.162;2023-06-19T01:04:21;25.00;80.30
25200;DHT22;33094;48.782;9.162;2023-06-19T01:06:54;24.90;80.30
25200;DHT22;33094;48.782;9.162;2023-06-19T01:09:25;24.90;80.30
25200;DHT22;33094;48.782;9.162;2023-06-19T01:11:55;24.90;80.40
25200;DHT22;33094;48.782;9.162;2023-06-19T01:14:25;25.00;80.50
25200;DHT22;33094;48.782;9.162;2023-06-19T01:16:51;25.00;80.50
25200;DHT22;33094;48.782;9.162;2023-06-19T01:19:20;25.00;80.70
25200;DHT22;33094;48.782;9.162;2023-06-19T01:21:46;24.90;79.90
25200;DHT22;33094;48.782;9.162;2023-06-19T01:24:12;24.90;79.80
25200;DHT22;33094;48.782;9.162;2023-06-19T01:26:38;24.90;79.60
25200;DHT22;33094;48.782;9.162;2023-06-19T01:29:03;24.90;79.90
25200;DHT22;33094;48.782;9.162;2023-06-19T01:31:42;24.80;80.40
25200;DHT22;33094;48.782;9.162;2023-06-19T01:34:08;24.70;80.70
25200;DHT22;33094;48.782;9.162;2023-06-19T01:36:34;24.50;81.50
25200;DHT22;33094;48.782;9.162;2023-06-19T01:39:00;24.40;81.60
25200;DHT22;33094;48.782;9.162;2023-06-19T01:41:26;24.40;81.80
25200;DHT22;33094;48.782;9.162;2023-06-19T01:43:54;24.30;82.20
25200;DHT22;33094;48.782;9.162;2023-06-19T01:46:19;24.30;82.30
25200;DHT22;33094;48.782;9.162;2023-06-19T01:48:45;24.20;82.80
25200;DHT22;33094;48.782;9.162;2023-06-19T01:51:11;24.10;83.00
25200;DHT22;33094;48.782;9.162;2023-06-19T01:53:36;24.10;83.20
25200;DHT22;33094;48.782;9.162;2023-06-19T01:56:02;24.10;83.40
25200;DHT22;33094;48.782;9.162;2023-06-19T01:58:28;24.10;83.50
25200;DHT22;33094;48.782;9.162;2023-06-19T02:00:53;24.00;83.90
25200;DHT22;33094;48.782;9.162;2023-06-19T02:03:19;24.00;84.90
25200;DHT22;33094;48.782;9.162;2023-06-19T02:05:44;23.90;85.30
25200;DHT22;33094;48.782;9.162;2023-06-19T02:08:10;23.90;85.70
25200;DHT22;33094;48.782;9.162;2023-06-19T02:10:36;23.80;85.90
25200;DHT22;33094;48.782;9.162;2023-06-19T02:13:01;23.80;86.00
25200;DHT22;33094;48.782;9.162;2023-06-19T02:15:26;23.80;86.00
25200;DHT22;33094;48.782;9.162;2023-06-19T02:17:53;23.80;86.00
25200;DHT22;33094;48.782;9.162;2023-06-19T02:20:20;23.80;86.20
25200;DHT22;33094;48.782;9.162;2023-06-19T02:22:46;23.70;86.60
25200;DHT22;33094;48.782;9.162;2023-06-19T02:25:11;23.60;86.70
25200;DHT22;33094;48.782;9.162;2023-06-19T02:27:37;23.80;87.10
25200;DHT22;33094;48.782;9.162;2023-06-19T02:30:02;23.70;87.20
25200;DHT22;33094;48.782;9.162;2023-06-19T02:32:28;23.60;87.40
25200;DHT22;33094;48.782;9.162;2023-06-19T02:34:54;23.50;87.60
25200;DHT22;33094;48.782;9.162;2023-06-19T02:37:19;23.40;87.90
25200;DHT22;33094;48.782;9.162;2023-06-19T02:39:45;23.30;88.30
25200;DHT22;33094;48.782;9.162;2023-06-19T02:42:10;23.20;88.40
25200;DHT22;33094;48.782;9.162;2023-06-19T02:44:36;23.30;88.60
25200;DHT22;33094;48.782;9.162;2023-06-19T02:47:01;23.40;88.80
25200;DHT22;33094;48.782;9.162;2023-06-19T02:49:27;23.40;88.70
25200;DHT22;33094;48.782;9.162;2023-06-19T02:51:52;23.40;88.80
25200;DHT22;33094;48.782;9.162;2023-06-19T02:54:18;23.40;88.80
25200;DHT22;33094;48.782;9.162;2023-06-19T02:56:43;23.50;88.80
25200;DHT22;33094;48.782;9.162;2023-06-19T02:59:09;23.50;88.80
25200;DHT22;33094;48.782;9.162;2023-06-19T03:01:34;23.40;89.10
25200;DHT22;33094;48.782;9.162;2023-06-19T03:04:00;23.30;89.40
25200;DHT22;33094;48.782;9.162;2023-06-19T03:06:25;23.40;89.50
25200;DHT22;33094;48.782;9.162;2023-06-19T03:08:51;23.40;89.40
25200;DHT22;33094;48.782;9.162;2023-06-19T03:11:17;23.20;89.40
25200;DHT22;33094;48.782;9.162;2023-06-19T03:13:47;23.30;89.70
25200;DHT22;33094;48.782;9.162;2023-06-19T03:16:13;23.30;90.00
25200;DHT22;33094;48.782;9.162;2023-06-19T03:18:40;23.30;89.90
25200;DHT22;33094;48.782;9.162;2023-06-19T03:21:05;23.30;90.00
25200;DHT22;33094;48.782;9.162;2023-06-19T03:23:31;23.40;90.00
25200;DHT22;33094;48.782;9.162;2023-06-19T03:25:56;23.30;90.00
25200;DHT22;33094;48.782;9.162;2023-06-19T03:28:23;23.30;90.10
25200;DHT22;33094;48.782;9.162;2023-06-19T03:30:49;23.20;90.30
25200;DHT22;33094;48.782;9.162;2023-06-19T03:33:15;23.00;90.50
25200;DHT22;33094;48.782;9.162;2023-06-19T03:35:40;23.00;91.10
25200;DHT22;33094;48.782;9.162;2023-06-19T03:38:06;23.00;90.90
25200;DHT22;33094;48.782;9.162;2023-06-19T03:40:31;23.10;90.80
25200;DHT22;33094;48.782;9.162;2023-06-19T03:42:59;23.10;90.50
25200;DHT22;33094;48.782;9.162;2023-06-19T03:45:25;23.00;90.30
25200;DHT22;33094;48.782;9.162;2023-06-19T03:47:50;22.90;90.60
25200;DHT22;33094;48.782;9.162;2023-06-19T03:50:16;22.90;90.70
25200;DHT22;33094;48.782;9.162;2023-06-19T03:52:42;22.90;90.60
25200;DHT22;33094;48.782;9.162;2023-06-19T03:55:07;22.90;90.60
25200;DHT22;33094;48.782;9.162;2023-06-19T03:57:33;22.80;90.90
25200;DHT22;33094;48.782;9.162;2023-06-19T03:59:58;22.80;91.00
25200;DHT22;33094;48.782;9.162;2023-06-19T04:02:24;22.70;91.20
25200;DHT22;33094;48.782;9.162;2023-06-19T04:04:50;22.60;91.20
25200;DHT22;33094;48.782;9.162;2023-06-19T04:07:16;22.50;91.30
25200;DHT22;33094;48.782;9.162;2023-06-19T04:09:41;22.60;91.40
25200;DHT22;33094;48.782;9.162;2023-06-19T04:12:07;22.80;91.30
25200;DHT22;33094;48.782;9.162;2023-06-19T04:14:32;22.90;91.20
25200;DHT22;33094;48.782;9.162;2023-06-19T04:16:58;22.70;91.40
25200;DHT22;33094;48.782;9.162;2023-06-19T04:19:24;22.50;91.60
25200;DHT22;33094;48.782;9.162;2023-06-19T04:21:49;22.30;92.40
25200;DHT22;33094;48.782;9.162;2023-06-19T04:24:14;22.00;92.90
25200;DHT22;33094;48.782;9.162;2023-06-19T04:26:40;21.90;93.20
25200;DHT22;33094;48.782;9.162;2023-06-19T04:29:07;21.90;93.20
25200;DHT22;33094;48.782;9.162;2023-06-19T04:31:33;22.00;93.20
25200;DHT22;33094;48.782;9.162;2023-06-19T04:34:06;22.10;93.10
25200;DHT22;33094;48.782;9.162;2023-06-19T04:36:31;22.20;93.10
25200;DHT22;33094;48.782;9.162;2023-06-19T04:38:57;22.30;93.00
25200;DHT22;33094;48.782;9.162;2023-06-19T04:41:23;22.40;92.90
25200;DHT22;33094;48.782;9.162;2023-06-19T04:43:49;22.50;92.80
25200;DHT22;33094;48.782;9.162;2023-06-19T04:46:14;22.50;92.70
25200;DHT22;33094;48.782;9.162;2023-06-19T04:48:45;22.60;92.70
25200;DHT22;33094;48.782;9.162;2023-06-19T04:51:18;22.70;92.60
25200;DHT22;33094;48.782;9.162;2023-06-19T04:53:47;22.80;92.40
25200;DHT22;33094;48.782;9.162;2023-06-19T04:56:13;22.80;92.50
25200;DHT22;33094;48.782;9.162;2023-06-19T04:58:39;22.90;92.40
25200;DHT22;33094;48.782;9.162;2023-06-19T05:01:11;22.70;92.60
25200;DHT22;33094;48.782;9.162;2023-06-19T05:03:37;22.80;92.60
25200;DHT22;33094;48.782;9.162;2023-06-19T05:06:02;22.60;92.80
25200;DHT22;33094;48.782;9.162;2023-06-19T05:08:28;22.50;92.80
25200;DHT22;33094;48.782;9.162;2023-06-19T05:10:53;22.50;93.00
25200;DHT22;33094;48.782;9.162;2023-06-19T05:13:19;22.40;93.10
25200;DHT22;33094;48.782;9.162;2023-06-19T05:15:44;22.50;93.00
25200;DHT22;33094;48.782;9.162;2023-06-19T05:18:10;22.40;93.20
25200;DHT22;33094;48.782;9.162;2023-06-19T05:20:36;22.60;93.00
25200;DHT22;33094;48.782;9.162;2023-06-19T05:23:01;22.50;93.10
25200;DHT22;33094;48.782;9.162;2023-06-19T05:25:27;22.60;93.40
25200;DHT22;33094;48.782;9.162;2023-06-19T05:27:53;22.60;93.10
25200;DHT22;33094;48.782;9.162;2023-06-19T05:30:18;22.70;93.20
25200;DHT22;33094;48.782;9.162;2023-06-19T05:32:44;22.60;93.20
25200;DHT22;33094;48.782;9.162;2023-06-19T05:35:09;22.60;93.40
25200;DHT22;33094;48.782;9.162;2023-06-19T05:37:35;22.60;93.40
25200;DHT22;33094;48.782;9.162;2023-06-19T05:40:01;22.40;93.50
25200;DHT22;33094;48.782;9.162;2023-06-19T05:42:26;22.50;93.60
25200;DHT22;33094;48.782;9.162;2023-06-19T05:44:52;22.50;93.50
25200;DHT22;33094;48.782;9.162;2023-06-19T05:47:32;22.60;93.40
25200;DHT22;33094;48.782;9.162;2023-06-19T05:50:04;22.90;93.30
25200;DHT22;33094;48.782;9.162;2023-06-19T05:52:30;23.00;93.30
25200;DHT22;33094;48.782;9.162;2023-06-19T05:54:55;23.00;93.10
25200;DHT22;33094;48.782;9.162;2023-06-19T05:57:23;23.00;93.00
25200;DHT22;33094;48.782;9.162;2023-06-19T05:59:49;23.40;92.80
25200;DHT22;33094;48.782;9.162;2023-06-19T06:02:14;23.60;92.50
25200;DHT22;33094;48.782;9.162;2023-06-19T06:04:40;23.80;92.20
25200;DHT22;33094;48.782;9.162;2023-06-19T06:07:06;23.60;92.30
25200;DHT22;33094;48.782;9.162;2023-06-19T06:09:31;23.50;92.50
25200;DHT22;33094;48.782;9.162;2023-06-19T06:11:58;23.60;92.60
25200;DHT22;33094;48.782;9.162;2023-06-19T06:14:24;23.70;92.40
25200;DHT22;33094;48.782;9.162;2023-06-19T06:16:49;23.70;92.50
25200;DHT22;33094;48.782;9.162;2023-06-19T06:19:15;23.50;93.00
25200;DHT22;33094;48.782;9.162;2023-06-19T06:21:41;23.50;92.70
25200;DHT22;33094;48.782;9.162;2023-06-19T06:24:06;23.60;92.60
25200;DHT22;33094;48.782;9.162;2023-06-19T06:26:32;23.50;92.70
25200;DHT22;33094;48.782;9.162;2023-06-19T06:28:58;23.60;92.90
25200;DHT22;33094;48.782;9.162;2023-06-19T06:31:27;23.90;92.50
25200;DHT22;33094;48.782;9.162;2023-06-19T06:33:52;24.10;92.30
25200;DHT22;33094;48.782;9.162;2023-06-19T06:36:18;24.30;92.10
25200;DHT22;33094;48.782;9.162;2023-06-19T06:38:44;24.40;91.70
25200;DHT22;33094;48.782;9.162;2023-06-19T06:41:09;24.20;91.70
25200;DHT22;33094;48.782;9.162;2023-06-19T06:43:35;24.20;91.90
25200;DHT22;33094;48.782;9.162;2023-06-19T06:46:00;24.10;91.90
25200;DHT22;33094;48.782;9.162;2023-06-19T06:48:26;24.30;91.70
25200;DHT22;33094;48.782;9.162;2023-06-19T06:50:51;24.40;91.50
25200;DHT22;33094;48.782;9.162;2023-06-19T06:53:26;24.60;91.00
25200;DHT22;33094;48.782;9.162;2023-06-19T06:55:53;24.40;91.00
25200;DHT22;33094;48.782;9.162;2023-06-19T06:58:19;24.70;90.60
25200;DHT22;33094;48.782;9.162;2023-06-19T07:00:44;24.70;90.50
25200;DHT22;33094;48.782;9.162;2023-06-19T07:03:10;24.90;90.40
25200;DHT22;33094;48.782;9.162;2023-06-19T07:05:36;25.00;90.30
25200;DHT22;33094;48.782;9.162;2023-06-19T07:08:01;25.00;90.30
25200;DHT22;33094;48.782;9.162;2023-06-19T07:10:27;24.70;90.40
25200;DHT22;33094;48.782;9.162;2023-06-19T07:12:53;24.60;90.60
25200;DHT22;33094;48.782;9.162;2023-06-19T07:15:19;24.20;91.10
25200;DHT22;33094;48.782;9.162;2023-06-19T07:17:44;24.40;90.90
25200;DHT22;33094;48.782;9.162;2023-06-19T07:20:10;24.40;90.80
25200;DHT22;33094;48.782;9.162;2023-06-19T07:22:36;24.70;90.40
25200;DHT22;33094;48.782;9.162;2023-06-19T07:25:02;24.80;90.20
25200;DHT22;33094;48.782;9.162;2023-06-19T07:27:29;24.90;90.30
25200;DHT22;33094;48.782;9.162;2023-06-19T07:29:54;25.10;89.80
25200;DHT22;33094;48.782;9.162;2023-06-19T07:32:20;24.90;90.00
25200;DHT22;33094;48.782;9.162;2023-06-19T07:34:46;24.70;90.20
25200;DHT22;33094;48.782;9.162;2023-06-19T07:37:12;24.60;90.30
25200;DHT22;33094;48.782;9.162;2023-06-19T07:39:43;24.80;90.10
25200;DHT22;33094;48.782;9.162;2023-06-19T07:42:09;24.90;90.10
25200;DHT22;33094;48.782;9.162;2023-06-19T07:44:36;25.20;89.50
25200;DHT22;33094;48.782;9.162;2023-06-19T07:47:02;25.50;89.50
25200;DHT22;33094;48.782;9.162;2023-06-19T07:49:27;25.90;88.00
25200;DHT22;33094;48.782;9.162;2023-06-19T07:51:53;26.20;87.70
25200;DHT22;33094;48.782;9.162;2023-06-19T07:54:18;26.60;86.80
25200;DHT22;33094;48.782;9.162;2023-06-19T07:56:44;26.70;86.40
25200;DHT22;33094;48.782;9.162;2023-06-19T07:59:09;26.90;85.50
25200;DHT22;33094;48.782;9.162;2023-06-19T08:01:35;26.40;86.60
25200;DHT22;33094;48.782;9.162;2023-06-19T08:04:00;26.20;86.80
25200;DHT22;33094;48.782;9.162;2023-06-19T08:06:26;26.10;87.50
25200;DHT22;33094;48.782;9.162;2023-06-19T08:08:52;26.20;87.00
25200;DHT22;33094;48.782;9.162;2023-06-19T08:11:17;26.40;86.90
25200;DHT22;33094;48.782;9.162;2023-06-19T08:13:43;26.60;86.70
25200;DHT22;33094;48.782;9.162;2023-06-19T08:16:08;26.70;85.50
25200;DHT22;33094;48.782;9.162;2023-06-19T08:18:35;26.40;86.40
25200;DHT22;33094;48.782;9.162;2023-06-19T08:21:01;26.30;86.90
25200;DHT22;33094;48.782;9.162;2023-06-19T08:23:27;26.40;86.50
25200;DHT22;33094;48.782;9.162;2023-06-19T08:25:52;26.50;86.60
25200;DHT22;33094;48.782;9.162;2023-06-19T08:28:18;26.70;85.90
25200;DHT22;33094;48.782;9.162;2023-06-19T08:30:46;26.40;86.10
25200;DHT22;33094;48.782;9.162;2023-06-19T08:33:13;26.30;87.20
25200;DHT22;33094;48.782;9.162;2023-06-19T08:35:38;26.30;87.10
25200;DHT22;33094;48.782;9.162;2023-06-19T08:38:04;26.10;87.30
25200;DHT22;33094;48.782;9.162;2023-06-19T08:40:30;26.10;87.90
25200;DHT22;33094;48.782;9.162;2023-06-19T08:42:55;26.20;86.90
25200;DHT22;33094;48.782;9.162;2023-06-19T08:45:21;25.90;87.80
25200;DHT22;33094;48.782;9.162;2023-06-19T08:47:48;26.10;87.60
25200;DHT22;33094;48.782;9.162;2023-06-19T08:50:15;26.40;87.00
25200;DHT22;33094;48.782;9.162;2023-06-19T08:52:40;27.00;86.50
25200;DHT22;33094;48.782;9.162;2023-06-19T08:55:06;28.10;84.00
25200;DHT22;33094;48.782;9.162;2023-06-19T08:57:35;29.10;81.60
25200;DHT22;33094;48.782;9.162;2023-06-19T09:00:01;29.90;80.50
25200;DHT22;33094;48.782;9.162;2023-06-19T09:02:37;31.00;78.40
25200;DHT22;33094;48.782;9.162;2023-06-19T09:05:12;30.80;78.10
25200;DHT22;33094;48.782;9.162;2023-06-19T09:07:39;31.00;78.20
25200;DHT22;33094;48.782;9.162;2023-06-19T09:10:14;31.10;77.00
25200;DHT22;33094;48.782;9.162;2023-06-19T09:12:41;30.60;78.00
25200;DHT22;33094;48.782;9.162;2023-06-19T09:15:14;30.00;78.70
25200;DHT22;33094;48.782;9.162;2023-06-19T09:17:40;31.20;78.30
25200;DHT22;33094;48.782;9.162;2023-06-19T09:20:06;32.80;75.20
25200;DHT22;33094;48.782;9.162;2023-06-19T09:22:32;32.10;75.70
25200;DHT22;33094;48.782;9.162;2023-06-19T09:25:01;33.10;74.90
25200;DHT22;33094;48.782;9.162;2023-06-19T09:27:32;31.80;73.80
25200;DHT22;33094;48.782;9.162;2023-06-19T09:29:57;31.10;76.00
25200;DHT22;33094;48.782;9.162;2023-06-19T09:32:25;30.80;77.40
25200;DHT22;33094;48.782;9.162;2023-06-19T09:34:52;31.80;76.10
25200;DHT22;33094;48.782;9.162;2023-06-19T09:37:25;31.30;76.20
25200;DHT22;33094;48.782;9.162;2023-06-19T09:39:55;32.60;73.90
25200;DHT22;33094;48.782;9.162;2023-06-19T09:42:26;33.80;72.50
25200;DHT22;33094;48.782;9.162;2023-06-19T09:44:53;35.00;70.80
25200;DHT22;33094;48.782;9.162;2023-06-19T09:47:21;33.90;72.30
25200;DHT22;33094;48.782;9.162;2023-06-19T09:49:49;32.60;74.20
25200;DHT22;33094;48.782;9.162;2023-06-19T09:52:19;32.40;74.80
25200;DHT22;33094;48.782;9.162;2023-06-19T09:54:47;32.40;75.40
25200;DHT22;33094;48.782;9.162;2023-06-19T09:57:15;32.40;75.40
25200;DHT22;33094;48.782;9.162;2023-06-19T09:59:40;32.60;75.10
25200;DHT22;33094;48.782;9.162;2023-06-19T10:02:07;32.30;75.90
25200;DHT22;33094;48.782;9.162;2023-06-19T10:07:15;32.20;75.80
25200;DHT22;33094;48.782;9.162;2023-06-19T10:09:42;31.50;76.90
25200;DHT22;33094;48.782;9.162;2023-06-19T10:12:13;31.60;76.80
25200;DHT22;33094;48.782;9.162;2023-06-19T10:14:45;31.80;76.30
25200;DHT22;33094;48.782;9.162;2023-06-19T10:17:11;32.60;75.00
25200;DHT22;33094;48.782;9.162;2023-06-19T10:19:37;33.30;73.40
25200;DHT22;33094;48.782;9.162;2023-06-19T10:22:03;34.50;71.80
25200;DHT22;33094;48.782;9.162;2023-06-19T10:24:28;35.00;71.00
25200;DHT22;33094;48.782;9.162;2023-06-19T10:26:58;35.70;70.60
25200;DHT22;33094;48.782;9.162;2023-06-19T10:29:24;35.70;71.00
25200;DHT22;33094;48.782;9.162;2023-06-19T10:31:50;36.30;69.40
25200;DHT22;33094;48.782;9.162;2023-06-19T10:34:16;36.10;70.30
25200;DHT22;33094;48.782;9.162;2023-06-19T10:36:42;36.60;69.80
25200;DHT22;33094;48.782;9.162;2023-06-19T10:39:07;36.20;69.80
25200;DHT22;33094;48.782;9.162;2023-06-19T10:41:34;36.00;70.40
25200;DHT22;33094;48.782;9.162;2023-06-19T10:44:01;35.50;71.00
25200;DHT22;33094;48.782;9.162;2023-06-19T10:46:35;34.30;72.50
25200;DHT22;33094;48.782;9.162;2023-06-19T10:49:02;33.10;74.50
25200;DHT22;33094;48.782;9.162;2023-06-19T10:51:36;32.10;76.60
25200;DHT22;33094;48.782;9.162;2023-06-19T10:54:02;31.30;77.80
25200;DHT22;33094;48.782;9.162;2023-06-19T10:56:28;30.60;79.50
25200;DHT22;33094;48.782;9.162;2023-06-19T10:58:57;30.40;80.20
25200;DHT22;33094;48.782;9.162;2023-06-19T11:01:30;30.00;80.80
25200;DHT22;33094;48.782;9.162;2023-06-19T11:03:57;29.60;81.80
25200;DHT22;33094;48.782;9.162;2023-06-19T11:06:24;29.50;82.10
25200;DHT22;33094;48.782;9.162;2023-06-19T11:08:52;29.70;81.40
25200;DHT22;33094;48.782;9.162;2023-06-19T11:11:18;29.90;81.20
25200;DHT22;33094;48.782;9.162;2023-06-19T11:13:45;30.60;80.10
25200;DHT22;33094;48.782;9.162;2023-06-19T11:16:11;30.90;79.80
25200;DHT22;33094;48.782;9.162;2023-06-19T11:18:36;30.80;80.20
25200;DHT22;33094;48.782;9.162;2023-06-19T11:21:02;31.60;78.30
25200;DHT22;33094;48.782;9.162;2023-06-19T11:23:29;32.90;77.00
25200;DHT22;33094;48.782;9.162;2023-06-19T11:26:01;33.70;74.90
25200;DHT22;33094;48.782;9.162;2023-06-19T11:28:28;34.10;74.50
25200;DHT22;33094;48.782;9.162;2023-06-19T11:31:00;35.00;72.80
25200;DHT22;33094;48.782;9.162;2023-06-19T11:33:26;35.30;72.40
25200;DHT22;33094;48.782;9.162;2023-06-19T11:35:53;35.20;71.90
25200;DHT22;33094;48.782;9.162;2023-06-19T11:38:19;33.60;74.40
25200;DHT22;33094;48.782;9.162;2023-06-19T11:40:45;34.40;73.40
25200;DHT22;33094;48.782;9.162;2023-06-19T11:43:11;35.20;72.20
25200;DHT22;33094;48.782;9.162;2023-06-19T11:45:49;35.80;70.70
25200;DHT22;33094;48.782;9.162;2023-06-19T11:48:21;34.00;71.80
25200;DHT22;33094;48.782;9.162;2023-06-19T11:50:46;32.10;75.70
25200;DHT22;33094;48.782;9.162;2023-06-19T11:53:12;32.90;74.40
25200;DHT22;33094;48.782;9.162;2023-06-19T11:55:38;33.50;73.10
25200;DHT22;33094;48.782;9.162;2023-06-19T11:58:04;33.10;74.10
25200;DHT22;33094;48.782;9.162;2023-06-19T12:00:30;33.40;73.40
25200;DHT22;33094;48.782;9.162;2023-06-19T12:02:55;33.40;73.00
25200;DHT22;33094;48.782;9.162;2023-06-19T12:05:22;32.10;74.20
25200;DHT22;33094;48.782;9.162;2023-06-19T12:07:48;32.40;74.80
25200;DHT22;33094;48.782;9.162;2023-06-19T12:10:14;33.20;73.80
25200;DHT22;33094;48.782;9.162;2023-06-19T12:12:40;33.40;73.60
25200;DHT22;33094;48.782;9.162;2023-06-19T12:15:06;33.80;73.00
25200;DHT22;33094;48.782;9.162;2023-06-19T12:17:32;33.70;73.30
25200;DHT22;33094;48.782;9.162;2023-06-19T12:19:58;33.00;74.50
25200;DHT22;33094;48.782;9.162;2023-06-19T12:22:24;32.10;76.70
25200;DHT22;33094;48.782;9.162;2023-06-19T12:24:56;32.20;76.60
25200;DHT22;33094;48.782;9.162;2023-06-19T12:27:24;33.00;75.20
25200;DHT22;33094;48.782;9.162;2023-06-19T12:29:50;33.90;73.50
25200;DHT22;33094;48.782;9.162;2023-06-19T12:32:15;34.70;72.30
25200;DHT22;33094;48.782;9.162;2023-06-19T12:34:41;35.00;71.60
25200;DHT22;33094;48.782;9.162;2023-06-19T12:37:13;35.20;71.30
25200;DHT22;33094;48.782;9.162;2023-06-19T12:39:39;35.10;71.40
25200;DHT22;33094;48.782;9.162;2023-06-19T12:42:05;34.90;71.90
25200;DHT22;33094;48.782;9.162;2023-06-19T12:44:31;34.60;71.80
25200;DHT22;33094;48.782;9.162;2023-06-19T12:46:57;34.20;73.10
25200;DHT22;33094;48.782;9.162;2023-06-19T12:49:24;35.00;71.80
25200;DHT22;33094;48.782;9.162;2023-06-19T12:51:49;34.30;72.40
25200;DHT22;33094;48.782;9.162;2023-06-19T12:54:17;33.70;73.20
25200;DHT22;33094;48.782;9.162;2023-06-19T12:56:43;33.40;74.40
25200;DHT22;33094;48.782;9.162;2023-06-19T12:59:09;33.70;73.50
25200;DHT22;33094;48.782;9.162;2023-06-19T13:01:35;33.50;73.40
25200;DHT22;33094;48.782;9.162;2023-06-19T13:04:01;32.90;74.10
25200;DHT22;33094;48.782;9.162;2023-06-19T13:06:26;32.70;74.60
25200;DHT22;33094;48.782;9.162;2023-06-19T13:08:52;33.00;74.60
25200;DHT22;33094;48.782;9.162;2023-06-19T13:11:17;33.80;73.30
25200;DHT22;33094;48.782;9.162;2023-06-19T13:13:43;34.50;71.50
25200;DHT22;33094;48.782;9.162;2023-06-19T13:16:09;34.70;71.60
25200;DHT22;33094;48.782;9.162;2023-06-19T13:18:37;34.40;71.70
25200;DHT22;33094;48.782;9.162;2023-06-19T13:21:03;33.90;72.40
25200;DHT22;33094;48.782;9.162;2023-06-19T13:23:29;33.10;73.80
25200;DHT22;33094;48.782;9.162;2023-06-19T13:25:56;32.90;74.40
25200;DHT22;33094;48.782;9.162;2023-06-19T13:28:22;32.90;74.10
25200;DHT22;33094;48.782;9.162;2023-06-19T13:30:47;32.70;74.40
25200;DHT22;33094;48.782;9.162;2023-06-19T13:33:13;31.70;75.90
25200;DHT22;33094;48.782;9.162;2023-06-19T13:35:38;31.10;77.40
25200;DHT22;33094;48.782;9.162;2023-06-19T13:38:04;31.10;76.80
25200;DHT22;33094;48.782;9.162;2023-06-19T13:40:30;31.30;76.80
25200;DHT22;33094;48.782;9.162;2023-06-19T13:42:55;30.90;77.60
25200;DHT22;33094;48.782;9.162;2023-06-19T13:45:21;30.60;77.50
25200;DHT22;33094;48.782;9.162;2023-06-19T13:47:47;30.90;77.80
25200;DHT22;33094;48.782;9.162;2023-06-19T13:50:12;30.70;77.50
25200;DHT22;33094;48.782;9.162;2023-06-19T13:52:44;31.10;77.10
25200;DHT22;33094;48.782;9.162;2023-06-19T13:55:10;31.50;76.80
25200;DHT22;33094;48.782;9.162;2023-06-19T13:57:36;31.60;76.70
25200;DHT22;33094;48.782;9.162;2023-06-19T14:00:02;31.80;76.00
25200;DHT22;33094;48.782;9.162;2023-06-19T14:02:28;32.10;75.70
25200;DHT22;33094;48.782;9.162;2023-06-19T14:04:54;32.20;75.80
25200;DHT22;33094;48.782;9.162;2023-06-19T14:07:20;31.90;76.00
25200;DHT22;33094;48.782;9.162;2023-06-19T14:12:26;31.20;76.50
25200;DHT22;33094;48.782;9.162;2023-06-19T14:14:51;31.10;76.60
25200;DHT22;33094;48.782;9.162;2023-06-19T14:17:17;30.90;77.10
25200;DHT22;33094;48.782;9.162;2023-06-19T14:19:43;30.90;77.20
25200;DHT22;33094;48.782;9.162;2023-06-19T14:22:09;31.00;76.70
25200;DHT22;33094;48.782;9.162;2023-06-19T14:24:34;31.30;76.50
25200;DHT22;33094;48.782;9.162;2023-06-19T14:27:00;31.60;76.40
25200;DHT22;33094;48.782;9.162;2023-06-19T14:29:26;31.80;76.00
25200;DHT22;33094;48.782;9.162;2023-06-19T14:31:59;31.60;74.90
25200;DHT22;33094;48.782;9.162;2023-06-19T14:34:25;31.30;75.90
25200;DHT22;33094;48.782;9.162;2023-06-19T14:36:50;31.50;75.40
25200;DHT22;33094;48.782;9.162;2023-06-19T14:39:16;31.60;75.10
25200;DHT22;33094;48.782;9.162;2023-06-19T14:41:42;31.70;75.70
25200;DHT22;33094;48.782;9.162;2023-06-19T14:44:07;31.90;75.30
25200;DHT22;33094;48.782;9.162;2023-06-19T14:46:33;31.70;75.70
25200;DHT22;33094;48.782;9.162;2023-06-19T14:49:07;31.60;76.10
25200;DHT22;33094;48.782;9.162;2023-06-19T14:51:33;31.70;76.30
25200;DHT22;33094;48.782;9.162;2023-06-19T14:53:59;31.70;76.70
25200;DHT22;33094;48.782;9.162;2023-06-19T14:56:25;31.70;76.60
25200;DHT22;33094;48.782;9.162;2023-06-19T14:58:51;31.60;76.50
25200;DHT22;33094;48.782;9.162;2023-06-19T15:01:16;31.40;77.00
25200;DHT22;33094;48.782;9.162;2023-06-19T15:03:42;31.20;77.40
25200;DHT22;33094;48.782;9.162;2023-06-19T15:06:08;31.20;77.60
25200;DHT22;33094;48.782;9.162;2023-06-19T15:08:34;31.40;77.50
25200;DHT22;33094;48.782;9.162;2023-06-19T15:11:01;31.40;77.10
25200;DHT22;33094;48.782;9.162;2023-06-19T15:13:30;31.50;76.70
25200;DHT22;33094;48.782;9.162;2023-06-19T15:15:56;31.70;76.90
25200;DHT22;33094;48.782;9.162;2023-06-19T15:18:24;31.70;76.80
25200;DHT22;33094;48.782;9.162;2023-06-19T15:20:49;31.90;76.70
25200;DHT22;33094;48.782;9.162;2023-06-19T15:23:15;31.90;76.50
25200;DHT22;33094;48.782;9.162;2023-06-19T15:25:41;32.00;76.20
25200;DHT22;33094;48.782;9.162;2023-06-19T15:28:06;31.90;76.60
25200;DHT22;33094;48.782;9.162;2023-06-19T15:30:32;31.90;76.70